Time;durP1;ratioP1;P1;durP2;ratioP2;P2;SDS_P1;SDS_P2;PMS_P1;PMS_P2;Temp;Humidity;BMP_temperature;BMP_pressure;BME280_temperature;BME280_humidity;BME280_pressure;Samples;Min_cycle;Max_cycle;Signal;HPM_P1;HPM_P2
2022/06/12 00:01:32;;;;;;;16.32;14.63;;;;;;;22.62;65.59;100084.33;1713632;82;21577;-73
2022/06/12 00:03:58;;;;;;;15.48;13.90;;;;;;;22.58;65.69;100093.56;1714454;82;21098;-72
2022/06/12 00:06:24;;;;;;;16.05;14.38;;;;;;;22.54;65.44;100093.30;1712673;82;21017;-72
2022/06/12 00:08:51;;;;;;;15.98;14.33;;;;;;;22.53;65.05;100096.31;1713978;82;21035;-73
2022/06/12 00:11:19;;;;;;;15.68;14.18;;;;;;;22.45;64.55;100080.03;1720061;81;21088;-72
2022/06/12 00:13:55;;;;;;;17.10;15.13;;;;;;;22.48;63.20;100092.23;1714337;82;21361;-75
2022/06/12 00:16:23;;;;;;;16.05;14.47;;;;;;;22.37;64.02;100083.28;1712553;82;21515;-71
2022/06/12 00:18:50;;;;;;;17.52;14.90;;;;;;;22.35;64.05;100094.41;1711728;82;21057;-70
2022/06/12 00:21:17;;;;;;;16.50;14.83;;;;;;;22.30;64.26;100089.52;1721811;82;21047;-71
2022/06/12 00:24:00;;;;;;;16.70;15.05;;;;;;;22.25;64.24;100093.06;1686143;81;21055;-74
2022/06/12 00:26:34;;;;;;;17.20;15.53;;;;;;;22.20;64.86;100092.23;1690392;84;21634;-72
2022/06/12 00:29:06;;;;;;;17.60;15.80;;;;;;;22.10;65.26;100088.97;1677475;84;21122;-71
2022/06/12 00:31:38;;;;;;;23.25;16.57;;;;;;;22.03;65.41;100096.56;1687293;84;21109;-72
2022/06/12 00:34:06;;;;;;;18.15;16.30;;;;;;;21.98;65.29;100096.00;1694795;83;21161;-73
2022/06/12 00:36:33;;;;;;;17.60;15.80;;;;;;;21.94;65.43;100093.55;1693569;84;21070;-71
2022/06/12 00:39:03;;;;;;;17.60;15.88;;;;;;;21.90;65.30;100100.06;1686482;84;21055;-72
2022/06/12 00:41:30;;;;;;;17.35;15.58;;;;;;;21.88;65.20;100098.71;1685020;84;21621;-72
2022/06/12 00:43:56;;;;;;;16.35;14.83;;;;;;;21.86;65.17;100100.33;1701015;84;21034;-73
2022/06/12 00:46:51;;;;;;;20.32;16.55;;;;;;;21.83;65.38;100098.17;1682352;84;21037;-70
2022/06/12 00:49:35;;;;;;;18.57;16.45;;;;;;;21.81;65.34;100098.16;1677618;84;21125;-70
2022/06/12 00:52:15;;;;;;;17.45;15.58;;;;;;;21.75;65.75;100098.69;1683238;84;21192;-72
2022/06/12 00:54:45;;;;;;;17.67;15.98;;;;;;;21.68;65.87;100096.77;1682543;84;21061;-72
2022/06/12 00:57:13;;;;;;;16.80;15.18;;;;;;;21.62;66.37;100097.30;1717613;82;21027;-75
2022/06/12 01:00:03;;;;;;;16.87;15.48;;;;;;;21.58;66.61;100094.84;1711378;82;21459;-73
2022/06/12 01:02:34;;;;;;;17.80;16.20;;;;;;;21.55;67.06;100094.05;1618637;87;21135;-72
2022/06/12 01:07:54;;;;;;;15.95;14.43;;;;;;;21.40;68.06;100097.49;1624672;87;21143;-71
2022/06/12 01:10:26;;;;;;;15.60;14.10;;;;;;;21.36;68.52;100094.50;1619630;87;21072;-72
2022/06/12 01:13:03;;;;;;;17.12;15.40;;;;;;;21.31;69.85;100094.47;1623957;86;21601;-73
2022/06/12 01:15:45;;;;;;;17.77;14.87;;;;;;;21.27;69.88;100096.64;1612756;87;21134;-73
2022/06/12 01:18:15;;;;;;;16.20;14.53;;;;;;;21.21;69.87;100098.52;1615631;87;21051;-72
2022/06/12 01:20:59;;;;;;;15.40;14.20;;;;;;;21.20;69.85;100096.31;1614947;87;21110;-74
2022/06/12 01:24:03;;;;;;;17.12;15.43;;;;;;;21.19;70.00;100095.22;1604295;87;21113;-72
2022/06/12 01:26:52;;;;;;;16.85;15.35;;;;;;;21.16;70.41;100090.35;1595128;88;21092;-71
2022/06/12 01:29:39;;;;;;;15.75;14.40;;;;;;;;;;1592908;88;21049;-72
2022/06/12 01:32:22;;;;;;;16.50;15.03;;;;;;;21.02;71.81;100090.55;1596456;88;21181;-71
2022/06/12 01:35:05;;;;;;;16.27;13.85;;;;;;;20.94;72.24;100087.80;1624947;87;21365;-71
2022/06/12 01:38:04;;;;;;;15.35;13.95;;;;;;;20.87;73.28;100084.51;1632639;86;21098;-75
2022/06/12 01:40:38;;;;;;;15.32;13.68;;;;;;;20.80;74.22;100083.41;1594981;88;21611;-72
2022/06/12 01:43:16;;;;;;;14.73;13.20;;;;;;;20.75;74.35;100082.02;1593894;88;21596;-71
2022/06/12 01:46:07;;;;;;;14.40;13.35;;;;;;;20.73;75.49;100084.98;1606136;87;21096;-70
2022/06/12 01:48:56;;;;;;;14.20;12.98;;;;;;;20.72;75.67;100082.52;1612263;87;21050;-71
2022/06/12 01:51:48;;;;;;;13.83;12.73;;;;;;;20.68;76.74;100082.26;1605141;87;21033;-71
2022/06/12 01:54:23;;;;;;;13.38;12.28;;;;;;;20.67;76.50;100087.93;1608621;87;21131;-71
2022/06/12 01:56:59;;;;;;;13.70;12.40;;;;;;;20.65;76.70;100084.67;1599331;87;21604;-73
2022/06/12 01:59:45;;;;;;;14.93;12.63;;;;;;;20.62;77.50;100083.28;1591046;88;21073;-70
2022/06/12 02:02:25;;;;;;;13.75;12.47;;;;;;;20.60;77.55;100081.37;1592073;88;21596;-72
2022/06/12 02:05:06;;;;;;;13.62;12.50;;;;;;;20.58;78.36;100090.27;1577306;90;21056;-70
2022/06/12 02:07:56;;;;;;;14.10;12.90;;;;;;;20.57;78.39;100087.30;1569981;90;21106;-72
2022/06/12 02:10:45;;;;;;;14.30;12.90;;;;;;;20.56;78.60;100087.82;1584904;90;21593;-70
2022/06/12 02:13:21;;;;;;;13.58;12.35;;;;;;;20.54;79.15;100085.91;1575877;90;21157;-72
2022/06/12 02:15:59;;;;;;;13.25;12.15;;;;;;;20.52;80.16;100088.61;1584320;90;21112;-70
2022/06/12 02:18:34;;;;;;;13.25;12.13;;;;;;;20.51;80.40;100085.09;1562406;90;21592;-69
2022/06/12 02:21:17;;;;;;;14.05;12.73;;;;;;;20.56;80.28;100085.11;1572017;90;21078;-72
2022/06/12 02:23:57;;;;;;;14.03;12.60;;;;;;;20.67;80.04;100087.39;1588338;88;21082;-71
2022/06/12 02:26:29;;;;;;;13.60;12.28;;;;;;;20.75;79.58;100085.53;1597271;88;21085;-73
2022/06/12 02:29:01;;;;;;;13.45;12.33;;;;;;;20.91;79.28;100084.28;1603072;88;21157;-72
2022/06/12 02:31:34;;;;;;;12.20;11.40;;;;;;;21.07;78.68;100083.25;1596102;88;21064;-71
2022/06/12 02:34:08;;;;;;;12.00;10.80;;;;;;;21.24;78.03;100084.41;1585002;87;21162;-74
2022/06/12 02:36:40;;;;;;;11.88;11.05;;;;;;;21.44;77.28;100083.70;1574661;90;21127;-70
2022/06/12 02:39:18;;;;;;;11.50;10.68;;;;;;;21.57;76.43;100086.45;1564872;90;21104;-70
2022/06/12 02:41:50;;;;;;;11.08;10.08;;;;;;;21.62;76.08;100088.36;1587476;88;21112;-77
2022/06/12 02:44:23;;;;;;;13.35;11.20;;;;;;;21.24;75.80;100030.75;1577721;89;21060;-70
2022/06/12 02:47:09;;;;;;;11.05;10.25;;;;;;;21.55;76.08;100079.94;1587861;88;21585;-71
2022/06/12 02:49:39;;;;;;;11.97;10.88;;;;;;;21.50;76.74;100083.18;1596721;88;21075;-71
2022/06/12 02:52:48;;;;;;;11.93;10.98;;;;;;;21.53;76.90;100082.11;1598700;87;21025;-71
2022/06/12 02:55:55;;;;;;;11.03;10.00;;;;;;;21.62;77.12;100081.02;1598185;87;21078;-70
2022/06/12 02:58:38;;;;;;;10.57;9.57;;;;;;;21.70;76.79;100079.16;1625368;86;21549;-73
2022/06/12 03:01:18;;;;;;;11.15;10.23;;;;;;;21.78;76.38;100076.45;1578632;88;21692;-74
2022/06/12 03:04:02;;;;;;;11.15;10.15;;;;;;;21.86;76.02;100076.47;1615777;87;21035;-72
2022/06/12 03:06:29;;;;;;;10.95;10.15;;;;;;;21.94;75.97;100075.40;1620581;87;21573;-71
2022/06/12 03:08:58;;;;;;;11.15;10.35;;;;;;;22.02;74.95;100074.56;1625897;87;21048;-71
2022/06/12 03:11:36;;;;;;;12.03;11.03;;;;;;;22.06;74.75;100078.39;1653545;85;21096;-71
2022/06/12 03:14:11;;;;;;;12.18;11.12;;;;;;;22.23;74.09;100076.77;1617876;87;21080;-70
2022/06/12 03:16:43;;;;;;;11.47;10.30;;;;;;;22.66;72.48;100074.53;1629407;87;21043;-76
2022/06/12 03:19:24;;;;;;;11.38;10.55;;;;;;;23.15;70.68;100083.93;1630730;87;21105;-70
2022/06/12 03:22:20;;;;;;;12.30;11.38;;;;;;;23.57;68.30;100078.02;1622473;87;21045;-72
2022/06/12 03:25:18;;;;;;;10.55;9.70;;;;;;;23.93;66.57;100085.16;1625373;87;21169;-79
2022/06/12 03:28:07;;;;;;;9.00;8.40;;;;;;;24.23;65.56;100082.74;1638762;87;21108;-69
2022/06/12 03:30:44;;;;;;;10.13;9.28;;;;;;;24.51;63.99;100081.13;1619158;87;21117;-71
2022/06/12 03:33:28;;;;;;;10.40;9.60;;;;;;;24.66;62.84;100085.08;1634349;86;21040;-73
2022/06/12 03:35:59;;;;;;;9.98;8.88;;;;;;;24.89;61.44;100079.93;1628443;87;21351;-74
2022/06/12 03:38:57;;;;;;;9.70;9.00;;;;;;;25.11;59.93;100082.13;1623865;87;21090;-70
2022/06/12 03:41:53;;;;;;;10.45;9.60;;;;;;;25.26;58.64;100079.80;1613032;87;21173;-73
2022/06/12 03:44:43;;;;;;;10.03;9.20;;;;;;;25.48;57.96;100079.20;1627191;86;21063;-72
2022/06/12 03:47:36;;;;;;;10.20;9.40;;;;;;;25.81;56.39;100073.27;1657051;86;21159;-71
2022/06/12 03:50:22;;;;;;;9.88;9.08;;;;;;;26.09;55.17;100076.67;1624563;87;22488;-71
2022/06/12 03:52:58;;;;;;;;;;;;;;;26.25;53.89;100073.15;1625163;87;21111;-73
2022/06/12 03:58:22;;;;;;;11.10;10.05;;;;;;;25.99;54.08;100083.95;1569505;90;21084;-73
2022/06/12 04:00:51;;;;;;;9.85;9.15;;;;;;;25.92;54.22;100081.31;1562951;90;21114;-73
2022/06/12 04:03:34;;;;;;;10.68;9.65;;;;;;;25.89;54.13;100084.07;1592016;88;21150;-73
2022/06/12 04:06:10;;;;;;;10.80;9.70;;;;;;;25.81;54.30;100081.46;1586695;89;21146;-73
2022/06/12 04:08:42;;;;;;;10.28;9.20;;;;;;;25.69;54.55;100078.35;1588364;89;21115;-74
2022/06/12 04:11:11;;;;;;;11.18;10.00;;;;;;;25.45;55.60;100089.36;1589115;89;21107;-74
2022/06/12 04:13:40;;;;;;;9.85;8.90;;;;;;;25.28;56.52;100089.86;1577461;89;21135;-74
2022/06/12 04:16:26;;;;;;;10.13;9.30;;;;;;;25.28;57.15;100094.48;1572478;89;21084;-74
2022/06/12 04:18:54;;;;;;;9.33;8.63;;;;;;;25.39;57.23;100093.24;1568896;90;21059;-74
2022/06/12 04:21:47;;;;;;;9.50;8.15;;;;;;;25.68;56.68;100086.86;1567678;90;21054;-75
2022/06/12 04:24:28;;;;;;;9.43;8.78;;;;;;;25.98;56.22;100083.69;1478265;92;21239;-75
2022/06/12 04:27:09;;;;;;;9.93;9.30;;;;;;;26.01;56.15;100091.83;1449725;97;21170;-67
2022/06/12 04:29:40;;;;;;;9.58;8.93;;;;;;;26.06;56.25;100091.75;1544429;89;21193;-71
2022/06/12 04:32:08;;;;;;;9.45;8.75;;;;;;;26.31;55.90;100096.53;1582086;89;21079;-71
2022/06/12 04:34:41;;;;;;;10.55;9.65;;;;;;;26.53;54.82;100096.69;1586119;89;21057;-73
2022/06/12 04:37:18;;;;;;;9.53;8.88;;;;;;;26.60;54.99;100093.03;1585186;89;21014;-72
2022/06/12 04:39:48;;;;;;;10.25;9.43;;;;;;;26.78;54.88;100094.05;1590093;88;21138;-74
2022/06/12 04:42:18;;;;;;;10.10;9.18;;;;;;;26.94;54.48;100085.01;1594373;88;22244;-74
2022/06/12 04:44:44;;;;;;;10.00;9.20;;;;;;;27.11;54.27;100089.06;1596225;87;21103;-75
2022/06/12 04:47:14;;;;;;;10.53;9.50;;;;;;;27.24;53.38;100093.70;1584878;89;21318;-75
2022/06/12 04:49:41;;;;;;;10.58;9.48;;;;;;;27.22;53.53;100089.10;1595305;89;21080;-75
2022/06/12 04:52:10;;;;;;;10.63;9.65;;;;;;;27.28;53.69;100089.27;1586051;89;21064;-75
2022/06/12 04:54:39;;;;;;;9.40;8.70;;;;;;;27.40;53.10;100090.67;1585716;89;21634;-74
2022/06/12 04:57:08;;;;;;;9.75;8.95;;;;;;;27.51;52.68;100087.95;1574815;88;21246;-74
2022/06/12 04:59:35;;;;;;;9.93;8.93;;;;;;;27.64;52.54;100087.11;1577430;89;21515;-74
2022/06/12 05:02:03;;;;;;;9.63;8.90;;;;;;;27.75;52.61;100089.86;1598425;88;21600;-75
2022/06/12 05:04:32;;;;;;;9.93;9.05;;;;;;;27.80;52.54;100090.28;1601486;88;21142;-75
2022/06/12 05:06:59;;;;;;;9.25;8.50;;;;;;;27.87;51.72;100094.78;1601027;88;21034;-74
2022/06/12 05:09:31;;;;;;;8.53;8.03;;;;;;;27.73;52.06;100089.36;1611734;88;21163;-75
2022/06/12 05:12:00;;;;;;;8.85;7.87;;;;;;;27.75;52.19;100091.80;1577007;89;21058;-74
2022/06/12 05:14:26;;;;;;;8.20;7.55;;;;;;;27.71;52.39;100094.34;1575220;90;21625;-75
2022/06/12 05:17:00;;;;;;;8.13;7.53;;;;;;;27.64;52.67;100099.42;1575470;90;21160;-74
2022/06/12 05:19:33;;;;;;;8.10;7.22;;;;;;;27.64;51.74;100095.32;1570028;90;21795;-70
2022/06/12 05:22:01;;;;;;;8.00;7.33;;;;;;;27.43;52.17;100094.97;1576298;90;21153;-72
2022/06/12 05:24:28;;;;;;;9.63;7.17;;;;;;;27.27;51.82;100099.95;1610020;88;21135;-71
2022/06/12 05:26:55;;;;;;;6.55;6.08;;;;;;;27.19;51.75;100102.81;1603210;88;21123;-70
2022/06/12 05:29:32;;;;;;;7.08;6.47;;;;;;;27.21;51.62;100095.67;1609642;88;21075;-73
2022/06/12 05:31:59;;;;;;;9.70;6.97;;;;;;;27.31;50.90;100094.67;1594527;88;21067;-72
2022/06/12 05:34:27;;;;;;;6.37;5.92;;;;;;;27.35;50.84;100097.87;1587690;87;21065;-73
2022/06/12 05:36:55;;;;;;;6.33;5.40;;;;;;;27.52;49.94;100103.24;1551972;91;21140;-64
2022/06/12 05:39:23;;;;;;;6.15;5.70;;;;;;;27.54;48.72;100099.10;1549716;91;21083;-66
2022/06/12 05:41:51;;;;;;;8.05;5.67;;;;;;;27.50;48.11;100102.75;1559478;91;21133;-65
2022/06/12 05:44:17;;;;;;;6.78;6.28;;;;;;;27.39;48.04;100106.28;1582520;89;21190;-65
2022/06/12 05:46:45;;;;;;;5.72;5.20;;;;;;;27.30;47.74;100108.92;1619995;87;21185;-65
2022/06/12 05:49:11;;;;;;;5.92;5.40;;;;;;;27.00;48.63;100106.23;1625560;87;21543;-63
2022/06/12 05:51:38;;;;;;;7.42;5.70;;;;;;;26.85;49.38;100101.06;1632257;87;21055;-63
2022/06/12 05:54:05;;;;;;;5.58;4.97;;;;;;;26.89;49.47;100100.70;1628246;87;21270;-62
2022/06/12 05:56:32;;;;;;;8.08;5.67;;;;;;;26.94;49.44;100099.25;1626557;87;21087;-64
2022/06/12 05:58:59;;;;;;;5.92;5.37;;;;;;;27.17;48.95;100104.25;1620008;87;21097;-64
2022/06/12 06:01:27;;;;;;;5.78;5.37;;;;;;;27.39;48.37;100109.02;1614005;87;21091;-71
2022/06/12 06:03:54;;;;;;;5.85;5.35;;;;;;;27.51;48.45;100109.86;1609928;88;21568;-66
2022/06/12 06:06:32;;;;;;;5.87;5.42;;;;;;;27.63;47.18;100108.74;1604681;88;21175;-64
2022/06/12 06:09:07;;;;;;;5.95;5.45;;;;;;;27.82;46.35;100116.00;1618614;88;21049;-65
2022/06/12 06:11:34;;;;;;;6.22;5.62;;;;;;;27.76;46.28;100118.87;1597604;87;21102;-64
2022/06/12 06:14:01;;;;;;;6.92;5.35;;;;;;;27.63;45.64;100114.78;1542623;90;21596;-64
2022/06/12 06:16:28;;;;;;;5.70;5.37;;;;;;;27.31;46.57;100113.30;1540772;91;21118;-72
2022/06/12 06:18:55;;;;;;;5.45;5.05;;;;;;;27.15;47.30;100110.58;1540393;92;21087;-68
2022/06/12 06:21:22;;;;;;;5.70;5.40;;;;;;;27.20;47.66;100110.48;1534992;91;21069;-69
2022/06/12 06:23:53;;;;;;;5.75;5.40;;;;;;;27.47;46.44;100110.22;1558480;90;21073;-68
2022/06/12 06:26:23;;;;;;;6.37;5.95;;;;;;;27.72;45.80;100114.31;1566702;90;21137;-69
2022/06/12 06:28:51;;;;;;;6.15;5.60;;;;;;;27.55;45.76;100117.70;1604747;88;21095;-69
2022/06/12 06:31:18;;;;;;;6.40;5.90;;;;;;;27.48;46.38;100111.83;1602381;88;21122;-68
2022/06/12 06:33:44;;;;;;;5.97;5.50;;;;;;;27.62;46.55;100107.70;1608725;88;21105;-67
2022/06/12 06:36:15;;;;;;;6.17;5.85;;;;;;;27.81;46.01;100113.83;1605192;88;21119;-67
2022/06/12 06:38:43;;;;;;;5.80;5.47;;;;;;;27.82;45.94;100106.41;1601630;87;21117;-68
2022/06/12 06:41:09;;;;;;;6.03;5.50;;;;;;;27.77;45.98;100101.87;1596782;88;21057;-67
2022/06/12 06:46:23;;;;;;;4.87;4.67;;;;;;;27.50;46.66;100107.69;1666737;85;21028;-68
2022/06/12 06:48:50;;;;;;;7.05;4.97;;;;;;;27.40;47.40;100111.99;1655800;85;21510;-68
2022/06/12 06:51:18;;;;;;;5.90;5.53;;;;;;;27.53;46.86;100100.20;1641852;85;21173;-68
2022/06/12 06:53:46;;;;;;;8.73;5.70;;;;;;;27.66;46.73;100104.59;1647815;85;21549;-68
2022/06/12 06:56:13;;;;;;;5.10;4.80;;;;;;;27.71;46.81;100105.30;1639431;85;21060;-70
2022/06/12 06:58:39;;;;;;;5.00;4.70;;;;;;;27.81;46.76;100103.44;1622995;87;21160;-68
2022/06/12 07:01:07;;;;;;;5.80;4.45;;;;;;;27.81;45.70;100115.77;1618142;87;21587;-69
2022/06/12 07:03:33;;;;;;;8.23;4.67;;;;;;;27.50;46.16;100095.37;1611097;87;21682;-69
2022/06/12 07:06:02;;;;;;;5.17;4.75;;;;;;;27.41;47.02;100097.20;1615699;87;21075;-69
2022/06/12 07:08:31;;;;;;;4.60;4.30;;;;;;;27.51;46.91;100096.17;1615536;87;21136;-70
2022/06/12 07:10:58;;;;;;;5.12;4.83;;;;;;;27.73;45.93;100093.47;1626773;87;21086;-70
2022/06/12 07:14:28;;;;;;;;;;;;;;;27.91;44.84;100089.52;1814509;77;22910;-71
2022/06/12 07:16:56;;;;;;;4.28;3.95;;;;;;;27.89;44.53;100098.05;1779543;78;20107;-71
2022/06/12 07:19:26;;;;;;;4.75;3.83;;;;;;;27.98;44.52;100090.47;1780822;78;21529;-69
2022/06/12 07:21:53;;;;;;;4.03;3.90;;;;;;;28.19;44.76;100093.52;1797553;78;21076;-68
2022/06/12 07:24:20;;;;;;;5.08;4.33;;;;;;;28.40;44.12;100089.69;1763165;78;20977;-68
2022/06/12 07:26:51;;;;;;;6.47;5.15;;;;;;;28.51;44.84;100096.52;1762579;80;21541;-68
2022/06/12 07:29:21;;;;;;;4.47;4.25;;;;;;;28.64;46.61;100089.36;1760123;80;21544;-68
2022/06/12 07:31:49;;;;;;;4.65;4.12;;;;;;;28.76;44.69;100093.67;1762653;80;21125;-69
2022/06/12 07:34:16;;;;;;;9.33;5.53;;;;;;;29.01;44.45;100101.77;1761857;80;20947;-68
2022/06/12 07:36:47;;;;;;;4.47;4.10;;;;;;;28.97;46.18;100088.45;1762233;80;21013;-70
2022/06/12 07:39:19;;;;;;;4.25;4.05;;;;;;;28.90;44.95;100084.78;1763125;80;21045;-69
2022/06/12 07:41:49;;;;;;;4.25;3.92;;;;;;;28.88;43.94;100082.92;1764265;80;20994;-68
2022/06/12 07:44:20;;;;;;;4.03;3.70;;;;;;;28.68;42.28;100058.23;1760170;80;21017;-69
2022/06/12 07:46:48;;;;;;;2.98;2.77;;;;;;;28.75;43.33;100090.70;1724996;82;21534;-68
2022/06/12 07:49:16;;;;;;;3.95;2.75;;;;;;;28.61;42.79;100088.03;1690108;82;21045;-70
2022/06/12 07:51:42;;;;;;;4.12;3.90;;;;;;;28.45;42.86;100084.08;1723527;82;21037;-69
2022/06/12 07:54:09;;;;;;;3.95;3.75;;;;;;;28.27;44.72;100080.41;1714616;82;21049;-69
2022/06/12 07:56:36;;;;;;;4.05;3.75;;;;;;;28.00;45.28;100050.68;1717511;82;21497;-68
2022/06/12 07:59:06;;;;;;;5.70;4.42;;;;;;;28.27;45.49;100079.05;1684407;84;21116;-69
2022/06/12 08:01:34;;;;;;;4.83;4.62;;;;;;;28.30;46.75;100089.39;1683624;83;20997;-69
2022/06/12 08:04:01;;;;;;;6.58;4.83;;;;;;;28.35;47.93;100085.95;1701686;83;21061;-70
2022/06/12 08:06:30;;;;;;;4.75;4.55;;;;;;;28.39;47.69;100092.16;1700869;83;21592;-69
2022/06/12 08:08:57;;;;;;;6.17;5.67;;;;;;;28.35;46.13;100082.42;1700292;83;21105;-69
2022/06/12 08:11:28;;;;;;;6.00;5.37;;;;;;;28.33;48.09;100089.58;1700998;83;21518;-69
2022/06/12 08:13:54;;;;;;;7.03;4.97;;;;;;;28.36;48.03;100085.39;1666683;84;21106;-69
2022/06/12 08:16:21;;;;;;;5.42;5.05;;;;;;;28.35;48.70;100087.33;1646942;85;21626;-71
2022/06/12 08:18:48;;;;;;;5.55;4.67;;;;;;;28.32;49.00;100078.92;1656892;85;21172;-70
2022/06/12 08:21:17;;;;;;;6.47;4.90;;;;;;;28.30;49.11;100088.82;1657851;85;21163;-69
2022/06/12 08:23:57;;;;;;;5.05;4.65;;;;;;;28.26;48.95;100090.58;1667370;84;21049;-70
2022/06/12 08:26:29;;;;;;;6.03;5.42;;;;;;;28.21;48.84;100088.52;1668209;84;21042;-71
2022/06/12 08:29:04;;;;;;;4.83;4.53;;;;;;;28.24;48.84;100094.19;1647944;85;21126;-70
2022/06/12 08:31:43;;;;;;;5.28;4.97;;;;;;;28.32;47.99;100081.09;1714077;82;21193;-69
2022/06/12 08:34:17;;;;;;;5.45;5.05;;;;;;;28.37;48.84;100097.98;1698999;81;21018;-71
2022/06/12 08:36:43;;;;;;;5.20;4.87;;;;;;;28.28;48.74;100088.90;1684514;83;21590;-71
2022/06/12 08:39:11;;;;;;;5.58;5.17;;;;;;;28.14;48.93;100076.08;1686771;83;21203;-69
2022/06/12 08:41:50;;;;;;;4.42;4.22;;;;;;;28.08;49.56;100080.62;1687731;83;21109;-69
2022/06/12 08:44:27;;;;;;;4.62;4.33;;;;;;;28.10;49.49;100090.70;1683465;83;21086;-69
2022/06/12 08:47:17;;;;;;;7.10;4.70;;;;;;;28.12;49.82;100090.66;1663965;83;21574;-68
2022/06/12 08:49:50;;;;;;;6.17;4.40;;;;;;;28.19;49.75;100087.47;1682392;83;21007;-70
2022/06/12 08:52:26;;;;;;;4.25;4.15;;;;;;;28.25;48.82;100079.92;1720209;82;21098;-70
2022/06/12 08:55:03;;;;;;;5.35;4.83;;;;;;;28.25;48.52;100083.47;1717512;82;21046;-68
2022/06/12 08:57:38;;;;;;;4.50;4.30;;;;;;;28.24;48.31;100087.34;1671813;82;21074;-70
2022/06/12 09:00:14;;;;;;;7.10;5.87;;;;;;;28.21;48.14;100084.41;1725602;82;21117;-69
2022/06/12 09:02:43;;;;;;;7.97;4.92;;;;;;;28.15;48.23;100081.80;1707664;82;21226;-68
2022/06/12 09:05:20;;;;;;;9.50;4.72;;;;;;;28.13;48.72;100079.94;1706279;82;21119;-71
2022/06/12 09:07:58;;;;;;;5.08;4.83;;;;;;;28.18;48.29;100080.38;1700228;82;21688;-70
2022/06/12 09:10:44;;;;;;;4.17;3.90;;;;;;;28.23;47.80;100079.43;1656738;84;21110;-68
2022/06/12 09:13:36;;;;;;;5.62;3.65;;;;;;;28.24;47.78;100083.80;1699548;83;22216;-69
2022/06/12 09:16:14;;;;;;;4.10;3.80;;;;;;;28.26;48.04;100080.98;1660075;85;21122;-68
2022/06/12 09:18:46;;;;;;;4.20;3.87;;;;;;;28.27;47.42;100080.41;1651585;85;21704;-70
2022/06/12 09:21:24;;;;;;;4.17;3.92;;;;;;;28.23;47.44;100079.43;1661122;83;21042;-68
2022/06/12 09:24:05;;;;;;;4.30;3.75;;;;;;;28.17;48.22;100076.58;1645165;85;21707;-69
2022/06/12 09:27:25;;;;;;;4.15;3.60;;;;;;;28.23;48.01;100080.23;1671743;84;21073;-67
2022/06/12 09:30:12;;;;;;;4.08;3.87;;;;;;;28.34;47.73;100078.05;1672550;84;21079;-69
2022/06/12 09:33:26;;;;;;;3.50;3.17;;;;;;;28.43;47.53;100079.47;1673165;84;21011;-71
2022/06/12 09:36:20;;;;;;;4.08;3.72;;;;;;;28.48;47.13;100081.52;1668158;84;21605;-69
2022/06/12 09:39:08;;;;;;;3.87;3.52;;;;;;;28.45;46.77;100079.39;1640307;86;21553;-69
2022/06/12 09:42:07;;;;;;;3.72;3.52;;;;;;;28.36;47.16;100075.80;1644606;86;21022;-69
2022/06/12 09:44:57;;;;;;;4.42;3.15;;;;;;;28.33;46.59;100078.61;1674567;83;21187;-70
2022/06/12 09:47:49;;;;;;;3.55;3.27;;;;;;;28.30;46.47;100072.95;1695673;83;21125;-70
2022/06/12 09:50:27;;;;;;;3.02;2.92;;;;;;;28.28;46.08;100071.89;1693904;83;21585;-72
2022/06/12 09:53:17;;;;;;;3.62;3.42;;;;;;;28.24;46.52;100068.73;1694468;83;21014;-71
2022/06/12 09:56:09;;;;;;;3.20;3.00;;;;;;;28.29;46.30;100068.03;1625514;85;21062;-70
2022/06/12 09:58:58;;;;;;;2.98;2.70;;;;;;;28.34;45.46;100064.34;1658847;85;21127;-70
2022/06/12 10:01:31;;;;;;;5.05;3.50;;;;;;;28.34;43.99;100062.97;1696305;82;21061;-72
2022/06/12 10:04:12;;;;;;;3.83;3.02;;;;;;;28.25;44.27;100074.44;1693842;83;21057;-69
2022/06/12 10:06:50;;;;;;;2.87;2.58;;;;;;;28.23;44.55;100070.64;1689993;83;21165;-69
2022/06/12 10:09:27;;;;;;;2.40;2.30;;;;;;;28.26;44.01;100058.26;1699787;83;21569;-69
2022/06/12 10:12:10;;;;;;;4.75;2.37;;;;;;;28.32;43.62;100065.22;1694530;83;21084;-70
2022/06/12 10:14:49;;;;;;;3.25;2.20;;;;;;;28.39;42.92;100064.22;1694387;83;21145;-68
2022/06/12 10:17:30;;;;;;;3.15;2.20;;;;;;;28.42;41.40;100062.77;1664911;85;21039;-68
2022/06/12 10:20:08;;;;;;;5.30;2.33;;;;;;;28.41;41.48;100041.41;1695936;83;21026;-71
2022/06/12 10:22:43;;;;;;;3.17;1.65;;;;;;;28.35;41.40;100050.90;1703171;82;20995;-71
2022/06/12 10:25:21;;;;;;;3.35;2.10;;;;;;;28.37;41.37;100051.39;1640891;86;21062;-69
2022/06/12 10:27:56;;;;;;;7.10;1.55;;;;;;;28.37;40.43;100054.13;1697257;82;21055;-68
2022/06/12 10:30:44;;;;;;;4.92;1.80;;;;;;;28.38;40.64;100054.36;1702503;82;21113;-69
2022/06/12 10:33:21;;;;;;;4.85;1.80;;;;;;;28.40;40.23;100050.73;1705125;82;21107;-71
2022/06/12 10:35:58;;;;;;;1.05;1.05;;;;;;;28.49;39.77;100047.48;1707585;82;21054;-69
2022/06/12 10:38:29;;;;;;;3.30;1.25;;;;;;;28.59;39.44;100045.05;1711969;82;20976;-67
2022/06/12 10:41:01;;;;;;;3.25;1.45;;;;;;;28.70;39.09;100048.33;1704833;82;21067;-69
2022/06/12 10:43:38;;;;;;;1.50;1.40;;;;;;;28.72;38.83;100048.81;1700301;82;21078;-69
2022/06/12 10:46:16;;;;;;;1.20;1.10;;;;;;;28.72;38.59;100052.92;1698660;82;21154;-70
2022/06/12 10:49:05;;;;;;;1.82;0.80;;;;;;;28.76;38.23;100049.79;1701048;82;21023;-71
2022/06/12 10:51:40;;;;;;;2.17;1.32;;;;;;;28.79;37.87;100049.16;1646462;86;21050;-70
2022/06/12 10:54:16;;;;;;;2.50;1.87;;;;;;;28.87;37.71;100048.38;1672036;84;21090;-68
2022/06/12 10:57:07;;;;;;;1.45;1.12;;;;;;;28.92;37.76;100042.75;1694190;83;21529;-69
2022/06/12 10:59:42;;;;;;;2.70;1.60;;;;;;;28.95;37.68;100043.23;1695600;83;21112;-70
2022/06/12 11:02:47;;;;;;;2.08;1.60;;;;;;;28.89;36.97;100047.48;1676133;84;21086;-72
2022/06/12 11:05:51;;;;;;;1.40;1.30;;;;;;;28.81;36.40;100041.42;1674518;84;21188;-69
2022/06/12 11:08:27;;;;;;;1.10;0.65;;;;;;;28.77;35.88;100048.67;1675691;84;21067;-69
2022/06/12 11:11:35;;;;;;;3.30;0.85;;;;;;;28.81;35.13;100034.56;1680265;83;21127;-69
2022/06/12 11:14:36;;;;;;;1.72;1.05;;;;;;;28.89;35.12;100034.34;1670981;84;21091;-69
2022/06/12 11:17:23;;;;;;;2.17;1.05;;;;;;;28.98;35.28;100026.15;1688417;83;21071;-68
2022/06/12 11:20:22;;;;;;;1.92;0.98;;;;;;;29.06;34.55;100022.03;1695592;83;21099;-71
2022/06/12 11:22:59;;;;;;;3.58;1.07;;;;;;;29.17;34.78;100021.20;1698738;83;21016;-70
2022/06/12 11:25:49;;;;;;;2.30;1.00;;;;;;;29.24;34.03;100035.25;1701340;82;21012;-69
2022/06/12 11:28:53;;;;;;;1.77;0.90;;;;;;;29.18;34.62;100030.23;1702668;82;21129;-69
2022/06/12 11:31:45;;;;;;;2.12;1.02;;;;;;;29.11;35.11;100012.28;1711292;82;21075;-68
2022/06/12 11:34:23;;;;;;;2.22;1.20;;;;;;;29.10;35.14;100013.97;1695374;81;21042;-68
2022/06/12 11:37:25;;;;;;;3.40;1.02;;;;;;;29.06;34.91;100004.77;1675627;84;21572;-69
2022/06/12 11:40:17;;;;;;;2.35;1.65;;;;;;;29.01;35.00;100008.48;1674555;84;21073;-70
2022/06/12 11:42:53;;;;;;;3.62;2.12;;;;;;;28.97;34.95;100000.66;1632531;87;21109;-70
2022/06/12 11:46:16;;;;;;;1.07;0.98;;;;;;;29.01;34.65;99999.42;1679909;84;21050;-69
2022/06/12 11:48:57;;;;;;;2.05;0.93;;;;;;;29.06;34.40;100000.08;1678265;84;21074;-70
2022/06/12 11:51:51;;;;;;;3.30;1.67;;;;;;;29.08;34.63;99999.77;1681481;84;21592;-70
2022/06/12 11:54:35;;;;;;;1.90;1.77;;;;;;;29.11;34.68;99990.90;1675250;84;21118;-70
2022/06/12 11:57:31;;;;;;;2.98;1.57;;;;;;;29.15;35.20;99985.61;1675304;84;21838;-70
2022/06/12 12:00:12;;;;;;;1.80;1.70;;;;;;;29.17;35.69;99973.17;1636228;86;21212;-69
2022/06/12 12:03:02;;;;;;;5.45;1.75;;;;;;;29.10;35.92;99983.78;1628343;86;21046;-69
2022/06/12 12:05:45;;;;;;;4.62;2.02;;;;;;;29.01;36.39;99982.96;1678688;84;21217;-68
2022/06/12 12:08:33;;;;;;;1.87;1.77;;;;;;;28.96;36.99;99979.83;1678944;83;21079;-70
2022/06/12 12:11:13;;;;;;;4.28;1.72;;;;;;;28.95;36.66;99973.28;1671811;84;21698;-70
2022/06/12 12:13:49;;;;;;;7.80;2.17;;;;;;;28.87;36.87;99979.80;1669480;84;21653;-71
2022/06/12 12:16:48;;;;;;;2.15;1.92;;;;;;;28.89;36.85;99979.48;1677694;84;21062;-70